sensor_id;sensor_type;location;lat;lon;timestamp;temperature;humidity
16955;DHT22;8594;52.052;8.354;2022-12-29T00:01:40;11.00;99.90
16955;DHT22;8594;52.052;8.354;2022-12-29T00:04:09;11.00;99.90
16955;DHT22;8594;52.052;8.354;2022-12-29T00:06:38;11.00;99.90
16955;DHT22;8594;52.052;8.354;2022-12-29T00:09:07;11.00;99.90
16955;DHT22;8594;52.052;8.354;2022-12-29T00:11:34;11.00;99.90
16955;DHT22;8594;52.052;8.354;2022-12-29T00:14:01;10.90;99.90
16955;DHT22;8594;52.052;8.354;2022-12-29T00:17:00;10.90;99.90
16955;DHT22;8594;52.052;8.354;2022-12-29T00:19:27;10.90;99.90
16955;DHT22;8594;52.052;8.354;2022-12-29T00:22:13;11.00;99.90
16955;DHT22;8594;52.052;8.354;2022-12-29T00:24:59;11.00;99.90
16955;DHT22;8594;52.052;8.354;2022-12-29T00:27:44;11.00;99.90
16955;DHT22;8594;52.052;8.354;2022-12-29T00:30:29;11.00;99.90
16955;DHT22;8594;52.052;8.354;2022-12-29T00:33:15;11.10;99.90
16955;DHT22;8594;52.052;8.354;2022-12-29T00:36:05;11.10;99.90
16955;DHT22;8594;52.052;8.354;2022-12-29T00:38:39;11.10;99.90
16955;DHT22;8594;52.052;8.354;2022-12-29T00:41:29;11.10;99.90
16955;DHT22;8594;52.052;8.354;2022-12-29T00:44:14;11.10;99.90
16955;DHT22;8594;52.052;8.354;2022-12-29T00:46:42;11.00;99.90
16955;DHT22;8594;52.052;8.354;2022-12-29T00:49:11;11.00;99.90
16955;DHT22;8594;52.052;8.354;2022-12-29T00:51:59;11.10;99.90
16955;DHT22;8594;52.052;8.354;2022-12-29T00:54:28;11.10;99.90
16955;DHT22;8594;52.052;8.354;2022-12-29T00:56:57;11.20;99.90
16955;DHT22;8594;52.052;8.354;2022-12-29T00:59:24;11.20;99.90
16955;DHT22;8594;52.052;8.354;2022-12-29T01:01:52;11.00;99.90
16955;DHT22;8594;52.052;8.354;2022-12-29T01:04:21;11.10;99.90
16955;DHT22;8594;52.052;8.354;2022-12-29T01:06:49;11.20;99.90
16955;DHT22;8594;52.052;8.354;2022-12-29T01:09:17;11.20;99.90
16955;DHT22;8594;52.052;8.354;2022-12-29T01:12:05;11.20;99.90
16955;DHT22;8594;52.052;8.354;2022-12-29T01:14:33;11.20;99.90
16955;DHT22;8594;52.052;8.354;2022-12-29T01:16:59;11.30;99.90
16955;DHT22;8594;52.052;8.354;2022-12-29T01:19:26;11.30;99.90
16955;DHT22;8594;52.052;8.354;2022-12-29T01:21:53;11.30;99.90
16955;DHT22;8594;52.052;8.354;2022-12-29T01:24:20;11.30;99.90
16955;DHT22;8594;52.052;8.354;2022-12-29T01:26:47;11.30;99.90
16955;DHT22;8594;52.052;8.354;2022-12-29T01:29:16;11.30;99.90
16955;DHT22;8594;52.052;8.354;2022-12-29T01:31:43;11.30;99.90
16955;DHT22;8594;52.052;8.354;2022-12-29T01:34:10;11.30;99.90
16955;DHT22;8594;52.052;8.354;2022-12-29T01:36:37;11.30;99.90
16955;DHT22;8594;52.052;8.354;2022-12-29T01:39:04;11.10;99.90
16955;DHT22;8594;52.052;8.354;2022-12-29T01:41:30;11.10;99.90
16955;DHT22;8594;52.052;8.354;2022-12-29T01:43:58;11.00;99.90
16955;DHT22;8594;52.052;8.354;2022-12-29T01:46:31;11.10;99.90
16955;DHT22;8594;52.052;8.354;2022-12-29T01:49:07;11.20;99.90
16955;DHT22;8594;52.052;8.354;2022-12-29T01:51:40;11.10;99.90
16955;DHT22;8594;52.052;8.354;2022-12-29T01:54:11;11.20;99.90
16955;DHT22;8594;52.052;8.354;2022-12-29T01:56:44;11.30;99.90
16955;DHT22;8594;52.052;8.354;2022-12-29T01:59:15;11.20;99.90
16955;DHT22;8594;52.052;8.354;2022-12-29T02:01:47;11.20;99.90
16955;DHT22;8594;52.052;8.354;2022-12-29T02:04:14;11.20;99.90
16955;DHT22;8594;52.052;8.354;2022-12-29T02:06:45;11.20;99.90
16955;DHT22;8594;52.052;8.354;2022-12-29T02:09:16;11.20;99.90
16955;DHT22;8594;52.052;8.354;2022-12-29T02:11:43;11.20;99.90
16955;DHT22;8594;52.052;8.354;2022-12-29T02:14:10;11.10;99.90
16955;DHT22;8594;52.052;8.354;2022-12-29T02:16:49;11.00;99.90
16955;DHT22;8594;52.052;8.354;2022-12-29T02:23:20;11.20;99.90
16955;DHT22;8594;52.052;8.354;2022-12-29T02:26:22;11.10;99.90
16955;DHT22;8594;52.052;8.354;2022-12-29T02:29:21;11.10;99.90
16955;DHT22;8594;52.052;8.354;2022-12-29T02:32:07;11.10;99.90
16955;DHT22;8594;52.052;8.354;2022-12-29T02:34:49;11.10;99.90
16955;DHT22;8594;52.052;8.354;2022-12-29T02:37:25;11.10;99.90
16955;DHT22;8594;52.052;8.354;2022-12-29T02:40:05;11.00;99.90
16955;DHT22;8594;52.052;8.354;2022-12-29T02:42:47;11.00;99.90
16955;DHT22;8594;52.052;8.354;2022-12-29T02:45:20;11.00;99.90
16955;DHT22;8594;52.052;8.354;2022-12-29T02:47:56;11.00;99.90
16955;DHT22;8594;52.052;8.354;2022-12-29T02:50:33;11.10;99.90
16955;DHT22;8594;52.052;8.354;2022-12-29T02:53:05;11.00;99.90
16955;DHT22;8594;52.052;8.354;2022-12-29T02:55:36;11.10;99.90
16955;DHT22;8594;52.052;8.354;2022-12-29T02:58:15;11.20;99.90
16955;DHT22;8594;52.052;8.354;2022-12-29T03:00:55;11.10;99.90
16955;DHT22;8594;52.052;8.354;2022-12-29T03:03:43;11.20;99.90
16955;DHT22;8594;52.052;8.354;2022-12-29T03:06:33;11.30;99.90
16955;DHT22;8594;52.052;8.354;2022-12-29T03:09:09;11.30;99.90
16955;DHT22;8594;52.052;8.354;2022-12-29T03:11:48;11.40;99.90
16955;DHT22;8594;52.052;8.354;2022-12-29T03:14:39;11.40;99.90
16955;DHT22;8594;52.052;8.354;2022-12-29T03:17:38;11.50;99.90
16955;DHT22;8594;52.052;8.354;2022-12-29T03:20:18;11.50;99.90
16955;DHT22;8594;52.052;8.354;2022-12-29T03:22:54;11.50;99.90
16955;DHT22;8594;52.052;8.354;2022-12-29T03:25:30;11.50;99.90
16955;DHT22;8594;52.052;8.354;2022-12-29T03:28:02;11.60;99.90
16955;DHT22;8594;52.052;8.354;2022-12-29T03:30:32;11.70;99.90
16955;DHT22;8594;52.052;8.354;2022-12-29T03:33:04;11.70;99.90
16955;DHT22;8594;52.052;8.354;2022-12-29T03:35:40;11.70;99.90
16955;DHT22;8594;52.052;8.354;2022-12-29T03:38:11;11.70;99.90
16955;DHT22;8594;52.052;8.354;2022-12-29T03:40:43;11.80;99.90
16955;DHT22;8594;52.052;8.354;2022-12-29T03:43:12;11.80;99.90
16955;DHT22;8594;52.052;8.354;2022-12-29T03:45:40;11.80;99.90
16955;DHT22;8594;52.052;8.354;2022-12-29T03:48:07;11.80;99.90
16955;DHT22;8594;52.052;8.354;2022-12-29T03:50:34;11.80;99.90
16955;DHT22;8594;52.052;8.354;2022-12-29T03:53:02;11.90;99.90
16955;DHT22;8594;52.052;8.354;2022-12-29T03:55:28;11.90;99.90
16955;DHT22;8594;52.052;8.354;2022-12-29T03:57:56;11.90;99.90
16955;DHT22;8594;52.052;8.354;2022-12-29T04:00:23;11.90;99.90
16955;DHT22;8594;52.052;8.354;2022-12-29T04:02:49;11.90;99.90
16955;DHT22;8594;52.052;8.354;2022-12-29T04:05:16;11.90;99.90
16955;DHT22;8594;52.052;8.354;2022-12-29T04:07:44;12.00;99.90
16955;DHT22;8594;52.052;8.354;2022-12-29T04:10:11;11.90;99.90
16955;DHT22;8594;52.052;8.354;2022-12-29T04:12:38;12.00;99.90
16955;DHT22;8594;52.052;8.354;2022-12-29T04:15:08;12.00;99.90
16955;DHT22;8594;52.052;8.354;2022-12-29T04:17:35;12.00;99.90
16955;DHT22;8594;52.052;8.354;2022-12-29T04:20:02;12.10;99.90
16955;DHT22;8594;52.052;8.354;2022-12-29T04:22:44;12.10;99.90
16955;DHT22;8594;52.052;8.354;2022-12-29T04:25:11;12.10;99.90
16955;DHT22;8594;52.052;8.354;2022-12-29T04:27:38;12.10;99.90
16955;DHT22;8594;52.052;8.354;2022-12-29T04:30:06;12.00;99.90
16955;DHT22;8594;52.052;8.354;2022-12-29T04:32:33;12.00;99.90
16955;DHT22;8594;52.052;8.354;2022-12-29T04:35:00;12.10;99.90
16955;DHT22;8594;52.052;8.354;2022-12-29T04:37:27;12.10;99.90
16955;DHT22;8594;52.052;8.354;2022-12-29T04:39:55;12.10;99.90
16955;DHT22;8594;52.052;8.354;2022-12-29T04:42:22;12.00;99.90
16955;DHT22;8594;52.052;8.354;2022-12-29T04:44:48;11.80;99.90
16955;DHT22;8594;52.052;8.354;2022-12-29T04:47:15;11.80;99.90
16955;DHT22;8594;52.052;8.354;2022-12-29T04:49:42;11.60;99.90
16955;DHT22;8594;52.052;8.354;2022-12-29T04:52:09;11.50;99.90
16955;DHT22;8594;52.052;8.354;2022-12-29T04:54:35;11.40;99.90
16955;DHT22;8594;52.052;8.354;2022-12-29T04:57:04;11.10;99.90
16955;DHT22;8594;52.052;8.354;2022-12-29T04:59:30;11.00;99.90
16955;DHT22;8594;52.052;8.354;2022-12-29T05:01:57;11.00;99.90
16955;DHT22;8594;52.052;8.354;2022-12-29T05:04:24;11.10;99.90
16955;DHT22;8594;52.052;8.354;2022-12-29T05:06:51;11.10;99.90
16955;DHT22;8594;52.052;8.354;2022-12-29T05:09:17;11.10;99.90
16955;DHT22;8594;52.052;8.354;2022-12-29T05:11:44;11.20;99.90
16955;DHT22;8594;52.052;8.354;2022-12-29T05:14:12;11.10;99.90
16955;DHT22;8594;52.052;8.354;2022-12-29T05:16:39;11.10;99.90
16955;DHT22;8594;52.052;8.354;2022-12-29T05:19:06;11.10;99.90
16955;DHT22;8594;52.052;8.354;2022-12-29T05:21:32;11.20;99.90
16955;DHT22;8594;52.052;8.354;2022-12-29T05:23:59;11.20;99.90
16955;DHT22;8594;52.052;8.354;2022-12-29T05:26:26;11.20;99.90
16955;DHT22;8594;52.052;8.354;2022-12-29T05:28:53;11.10;99.90
16955;DHT22;8594;52.052;8.354;2022-12-29T05:31:21;11.20;99.90
16955;DHT22;8594;52.052;8.354;2022-12-29T05:33:48;11.20;99.90
16955;DHT22;8594;52.052;8.354;2022-12-29T05:36:15;11.30;99.90
16955;DHT22;8594;52.052;8.354;2022-12-29T05:38:41;11.40;99.90
16955;DHT22;8594;52.052;8.354;2022-12-29T05:41:09;11.40;99.90
16955;DHT22;8594;52.052;8.354;2022-12-29T05:43:35;11.40;99.90
16955;DHT22;8594;52.052;8.354;2022-12-29T05:46:02;11.40;99.90
16955;DHT22;8594;52.052;8.354;2022-12-29T05:48:31;11.50;99.90
16955;DHT22;8594;52.052;8.354;2022-12-29T05:50:57;11.50;99.90
16955;DHT22;8594;52.052;8.354;2022-12-29T05:53:24;11.50;99.90
16955;DHT22;8594;52.052;8.354;2022-12-29T05:55:51;11.50;99.90
16955;DHT22;8594;52.052;8.354;2022-12-29T05:58:18;11.60;99.90
16955;DHT22;8594;52.052;8.354;2022-12-29T06:00:45;11.60;99.90
16955;DHT22;8594;52.052;8.354;2022-12-29T06:03:12;11.60;99.90
16955;DHT22;8594;52.052;8.354;2022-12-29T06:05:40;11.60;99.90
16955;DHT22;8594;52.052;8.354;2022-12-29T06:08:07;11.60;99.90
16955;DHT22;8594;52.052;8.354;2022-12-29T06:10:34;11.20;99.90
16955;DHT22;8594;52.052;8.354;2022-12-29T06:13:01;10.70;99.90
16955;DHT22;8594;52.052;8.354;2022-12-29T06:15:29;10.50;99.90
16955;DHT22;8594;52.052;8.354;2022-12-29T06:17:55;10.40;99.90
16955;DHT22;8594;52.052;8.354;2022-12-29T06:20:22;10.30;99.90
16955;DHT22;8594;52.052;8.354;2022-12-29T06:22:50;10.20;99.90
16955;DHT22;8594;52.052;8.354;2022-12-29T06:25:17;10.30;99.90
16955;DHT22;8594;52.052;8.354;2022-12-29T06:27:44;10.20;99.90
16955;DHT22;8594;52.052;8.354;2022-12-29T06:30:12;10.20;99.90
16955;DHT22;8594;52.052;8.354;2022-12-29T06:32:40;10.20;99.90
16955;DHT22;8594;52.052;8.354;2022-12-29T06:35:07;10.20;99.90
16955;DHT22;8594;52.052;8.354;2022-12-29T06:37:35;10.20;99.90
16955;DHT22;8594;52.052;8.354;2022-12-29T06:40:03;10.20;99.90
16955;DHT22;8594;52.052;8.354;2022-12-29T06:42:31;10.20;99.90
16955;DHT22;8594;52.052;8.354;2022-12-29T06:44:58;10.20;99.90
16955;DHT22;8594;52.052;8.354;2022-12-29T06:47:26;10.20;99.90
16955;DHT22;8594;52.052;8.354;2022-12-29T06:49:52;10.20;99.90
16955;DHT22;8594;52.052;8.354;2022-12-29T06:52:19;10.20;99.90
16955;DHT22;8594;52.052;8.354;2022-12-29T06:54:46;10.10;99.90
16955;DHT22;8594;52.052;8.354;2022-12-29T06:57:14;10.10;99.90
16955;DHT22;8594;52.052;8.354;2022-12-29T06:59:41;10.10;99.90
16955;DHT22;8594;52.052;8.354;2022-12-29T07:02:09;10.20;99.90
16955;DHT22;8594;52.052;8.354;2022-12-29T07:04:37;10.30;99.90
16955;DHT22;8594;52.052;8.354;2022-12-29T07:07:04;10.30;99.90
16955;DHT22;8594;52.052;8.354;2022-12-29T07:09:30;10.40;99.90
16955;DHT22;8594;52.052;8.354;2022-12-29T07:11:57;10.30;99.90
16955;DHT22;8594;52.052;8.354;2022-12-29T07:14:25;10.10;99.90
16955;DHT22;8594;52.052;8.354;2022-12-29T07:16:52;10.20;99.90
16955;DHT22;8594;52.052;8.354;2022-12-29T07:19:20;10.20;99.90
16955;DHT22;8594;52.052;8.354;2022-12-29T07:21:46;10.30;99.90
16955;DHT22;8594;52.052;8.354;2022-12-29T07:24:13;10.30;99.90
16955;DHT22;8594;52.052;8.354;2022-12-29T07:26:40;10.20;99.90
16955;DHT22;8594;52.052;8.354;2022-12-29T07:29:07;10.20;99.90
16955;DHT22;8594;52.052;8.354;2022-12-29T07:31:35;10.20;99.90
16955;DHT22;8594;52.052;8.354;2022-12-29T07:34:02;10.20;99.90
16955;DHT22;8594;52.052;8.354;2022-12-29T07:36:28;10.40;99.90
16955;DHT22;8594;52.052;8.354;2022-12-29T07:38:55;10.30;99.90
16955;DHT22;8594;52.052;8.354;2022-12-29T07:41:22;10.30;99.90
16955;DHT22;8594;52.052;8.354;2022-12-29T07:43:49;10.30;99.90
16955;DHT22;8594;52.052;8.354;2022-12-29T07:46:16;10.30;99.90
16955;DHT22;8594;52.052;8.354;2022-12-29T07:48:44;10.30;99.90
16955;DHT22;8594;52.052;8.354;2022-12-29T07:51:10;10.40;99.90
16955;DHT22;8594;52.052;8.354;2022-12-29T07:53:37;10.40;99.90
16955;DHT22;8594;52.052;8.354;2022-12-29T07:56:05;10.40;99.90
16955;DHT22;8594;52.052;8.354;2022-12-29T07:58:32;10.50;99.90
16955;DHT22;8594;52.052;8.354;2022-12-29T08:00:59;10.60;99.90
16955;DHT22;8594;52.052;8.354;2022-12-29T08:03:26;10.60;99.90
16955;DHT22;8594;52.052;8.354;2022-12-29T08:05:54;10.70;99.90
16955;DHT22;8594;52.052;8.354;2022-12-29T08:08:21;10.60;99.90
16955;DHT22;8594;52.052;8.354;2022-12-29T08:10:47;10.60;99.90
16955;DHT22;8594;52.052;8.354;2022-12-29T08:13:15;10.60;99.90
16955;DHT22;8594;52.052;8.354;2022-12-29T08:15:42;10.50;99.90
16955;DHT22;8594;52.052;8.354;2022-12-29T08:18:08;10.60;99.90
16955;DHT22;8594;52.052;8.354;2022-12-29T08:20:35;10.60;99.90
16955;DHT22;8594;52.052;8.354;2022-12-29T08:23:03;10.60;99.90
16955;DHT22;8594;52.052;8.354;2022-12-29T08:25:30;10.60;99.90
16955;DHT22;8594;52.052;8.354;2022-12-29T08:27:57;10.60;99.90
16955;DHT22;8594;52.052;8.354;2022-12-29T08:30:24;10.70;99.90
16955;DHT22;8594;52.052;8.354;2022-12-29T08:32:50;10.70;99.90
16955;DHT22;8594;52.052;8.354;2022-12-29T08:35:17;10.80;99.90
16955;DHT22;8594;52.052;8.354;2022-12-29T08:37:44;10.70;99.90
16955;DHT22;8594;52.052;8.354;2022-12-29T08:40:12;10.60;99.90
16955;DHT22;8594;52.052;8.354;2022-12-29T08:42:40;10.70;99.90
16955;DHT22;8594;52.052;8.354;2022-12-29T08:45:07;10.70;99.90
16955;DHT22;8594;52.052;8.354;2022-12-29T08:47:35;10.80;99.90
16955;DHT22;8594;52.052;8.354;2022-12-29T08:50:03;10.80;99.90
16955;DHT22;8594;52.052;8.354;2022-12-29T08:52:30;10.80;99.90
16955;DHT22;8594;52.052;8.354;2022-12-29T08:54:57;10.70;99.90
16955;DHT22;8594;52.052;8.354;2022-12-29T08:57:25;10.70;99.90
16955;DHT22;8594;52.052;8.354;2022-12-29T08:59:52;10.80;99.90
16955;DHT22;8594;52.052;8.354;2022-12-29T09:02:19;10.80;99.90
16955;DHT22;8594;52.052;8.354;2022-12-29T09:04:45;10.80;99.90
16955;DHT22;8594;52.052;8.354;2022-12-29T09:07:12;10.80;99.90
16955;DHT22;8594;52.052;8.354;2022-12-29T09:09:39;10.80;99.90
16955;DHT22;8594;52.052;8.354;2022-12-29T09:12:06;11.00;99.90
16955;DHT22;8594;52.052;8.354;2022-12-29T09:14:37;11.60;99.90
16955;DHT22;8594;52.052;8.354;2022-12-29T09:17:03;11.80;99.90
16955;DHT22;8594;52.052;8.354;2022-12-29T09:19:48;12.20;99.90
16955;DHT22;8594;52.052;8.354;2022-12-29T09:22:14;12.10;99.90
16955;DHT22;8594;52.052;8.354;2022-12-29T09:24:41;12.00;99.90
16955;DHT22;8594;52.052;8.354;2022-12-29T09:27:08;12.20;99.90
16955;DHT22;8594;52.052;8.354;2022-12-29T09:29:42;12.30;99.90
16955;DHT22;8594;52.052;8.354;2022-12-29T09:32:12;12.10;99.90
16955;DHT22;8594;52.052;8.354;2022-12-29T09:34:40;12.00;99.90
16955;DHT22;8594;52.052;8.354;2022-12-29T09:37:07;11.80;99.90
16955;DHT22;8594;52.052;8.354;2022-12-29T09:39:34;11.70;99.90
16955;DHT22;8594;52.052;8.354;2022-12-29T09:42:05;11.50;99.90
16955;DHT22;8594;52.052;8.354;2022-12-29T09:44:48;11.70;99.90
16955;DHT22;8594;52.052;8.354;2022-12-29T09:47:27;11.80;99.90
16955;DHT22;8594;52.052;8.354;2022-12-29T09:49:57;11.60;99.90
16955;DHT22;8594;52.052;8.354;2022-12-29T09:52:31;11.60;99.90
16955;DHT22;8594;52.052;8.354;2022-12-29T09:55:03;11.70;99.90
16955;DHT22;8594;52.052;8.354;2022-12-29T09:57:40;11.80;99.90
16955;DHT22;8594;52.052;8.354;2022-12-29T10:00:16;11.70;99.90
16955;DHT22;8594;52.052;8.354;2022-12-29T10:02:47;11.70;99.90
16955;DHT22;8594;52.052;8.354;2022-12-29T10:05:27;11.80;99.90
16955;DHT22;8594;52.052;8.354;2022-12-29T10:08:05;11.80;99.90
16955;DHT22;8594;52.052;8.354;2022-12-29T10:10:45;11.70;99.90
16955;DHT22;8594;52.052;8.354;2022-12-29T10:13:26;11.60;99.90
16955;DHT22;8594;52.052;8.354;2022-12-29T10:16:03;11.50;99.90
16955;DHT22;8594;52.052;8.354;2022-12-29T10:18:47;11.80;99.90
16955;DHT22;8594;52.052;8.354;2022-12-29T10:21:47;12.30;99.90
16955;DHT22;8594;52.052;8.354;2022-12-29T10:24:26;13.00;99.90
16955;DHT22;8594;52.052;8.354;2022-12-29T10:26:56;13.10;99.90
16955;DHT22;8594;52.052;8.354;2022-12-29T10:29:28;12.90;99.90
16955;DHT22;8594;52.052;8.354;2022-12-29T10:32:04;12.60;99.90
16955;DHT22;8594;52.052;8.354;2022-12-29T10:34:37;12.40;99.90
16955;DHT22;8594;52.052;8.354;2022-12-29T10:37:14;12.40;99.90
16955;DHT22;8594;52.052;8.354;2022-12-29T10:39:50;12.00;99.90
16955;DHT22;8594;52.052;8.354;2022-12-29T10:42:27;11.90;99.90
16955;DHT22;8594;52.052;8.354;2022-12-29T10:44:56;11.80;99.90
16955;DHT22;8594;52.052;8.354;2022-12-29T10:47:29;11.80;99.90
16955;DHT22;8594;52.052;8.354;2022-12-29T10:50:02;11.70;99.90
16955;DHT22;8594;52.052;8.354;2022-12-29T10:52:31;11.70;99.90
16955;DHT22;8594;52.052;8.354;2022-12-29T10:55:02;11.70;99.90
16955;DHT22;8594;52.052;8.354;2022-12-29T10:57:33;11.80;99.90
16955;DHT22;8594;52.052;8.354;2022-12-29T11:00:11;11.70;99.90
16955;DHT22;8594;52.052;8.354;2022-12-29T11:03:01;11.80;99.90
16955;DHT22;8594;52.052;8.354;2022-12-29T11:05:49;11.80;99.90
16955;DHT22;8594;52.052;8.354;2022-12-29T11:08:20;11.80;99.90
16955;DHT22;8594;52.052;8.354;2022-12-29T11:10:58;11.60;99.90
16955;DHT22;8594;52.052;8.354;2022-12-29T11:13:29;11.60;99.90
16955;DHT22;8594;52.052;8.354;2022-12-29T11:15:57;11.60;99.90
16955;DHT22;8594;52.052;8.354;2022-12-29T11:18:32;11.60;99.90
16955;DHT22;8594;52.052;8.354;2022-12-29T11:21:05;11.60;99.90
16955;DHT22;8594;52.052;8.354;2022-12-29T11:23:36;11.70;99.90
16955;DHT22;8594;52.052;8.354;2022-12-29T11:26:15;11.70;99.90
16955;DHT22;8594;52.052;8.354;2022-12-29T11:28:46;11.80;99.90
16955;DHT22;8594;52.052;8.354;2022-12-29T11:31:30;11.80;99.90
16955;DHT22;8594;52.052;8.354;2022-12-29T11:33:58;11.60;99.90
16955;DHT22;8594;52.052;8.354;2022-12-29T11:36:33;11.70;99.90
16955;DHT22;8594;52.052;8.354;2022-12-29T11:39:02;11.70;99.90
16955;DHT22;8594;52.052;8.354;2022-12-29T11:41:31;11.70;99.90
16955;DHT22;8594;52.052;8.354;2022-12-29T11:43:59;11.80;99.90
16955;DHT22;8594;52.052;8.354;2022-12-29T11:46:31;11.80;99.90
16955;DHT22;8594;52.052;8.354;2022-12-29T11:49:02;11.90;99.90
16955;DHT22;8594;52.052;8.354;2022-12-29T11:51:32;12.00;99.90
16955;DHT22;8594;52.052;8.354;2022-12-29T11:54:05;11.80;99.90
16955;DHT22;8594;52.052;8.354;2022-12-29T11:56:34;11.80;99.90
16955;DHT22;8594;52.052;8.354;2022-12-29T11:59:36;11.80;99.90
16955;DHT22;8594;52.052;8.354;2022-12-29T12:02:35;11.80;99.90
16955;DHT22;8594;52.052;8.354;2022-12-29T12:05:22;11.80;99.90
16955;DHT22;8594;52.052;8.354;2022-12-29T12:07:59;11.60;99.90
16955;DHT22;8594;52.052;8.354;2022-12-29T12:10:33;11.60;99.90
16955;DHT22;8594;52.052;8.354;2022-12-29T12:13:08;11.70;99.90
16955;DHT22;8594;52.052;8.354;2022-12-29T12:15:49;11.70;99.90
16955;DHT22;8594;52.052;8.354;2022-12-29T12:18:28;11.70;99.90
16955;DHT22;8594;52.052;8.354;2022-12-29T12:21:09;11.80;99.90
16955;DHT22;8594;52.052;8.354;2022-12-29T12:23:54;11.80;99.90
16955;DHT22;8594;52.052;8.354;2022-12-29T12:26:33;11.80;99.90
16955;DHT22;8594;52.052;8.354;2022-12-29T12:29:10;11.70;99.90
16955;DHT22;8594;52.052;8.354;2022-12-29T12:31:45;11.60;99.90
16955;DHT22;8594;52.052;8.354;2022-12-29T12:34:20;11.70;99.90
16955;DHT22;8594;52.052;8.354;2022-12-29T12:37:03;11.70;99.90
16955;DHT22;8594;52.052;8.354;2022-12-29T12:39:48;11.70;99.90
16955;DHT22;8594;52.052;8.354;2022-12-29T12:42:30;11.70;99.90
16955;DHT22;8594;52.052;8.354;2022-12-29T12:45:29;11.80;99.90
16955;DHT22;8594;52.052;8.354;2022-12-29T12:48:11;11.80;99.90
16955;DHT22;8594;52.052;8.354;2022-12-29T12:50:54;11.70;99.90
16955;DHT22;8594;52.052;8.354;2022-12-29T12:53:40;11.80;99.90
16955;DHT22;8594;52.052;8.354;2022-12-29T12:56:38;11.70;99.90
16955;DHT22;8594;52.052;8.354;2022-12-29T12:59:21;11.60;99.90
16955;DHT22;8594;52.052;8.354;2022-12-29T13:02:15;11.60;99.90
16955;DHT22;8594;52.052;8.354;2022-12-29T13:05:10;11.60;99.90
16955;DHT22;8594;52.052;8.354;2022-12-29T13:07:53;11.70;99.90
16955;DHT22;8594;52.052;8.354;2022-12-29T13:10:41;11.80;99.90
16955;DHT22;8594;52.052;8.354;2022-12-29T13:13:32;11.70;99.90
16955;DHT22;8594;52.052;8.354;2022-12-29T13:16:15;11.60;99.90
16955;DHT22;8594;52.052;8.354;2022-12-29T13:18:54;11.60;99.90
16955;DHT22;8594;52.052;8.354;2022-12-29T13:21:37;11.50;99.90
16955;DHT22;8594;52.052;8.354;2022-12-29T13:24:21;11.50;99.90
16955;DHT22;8594;52.052;8.354;2022-12-29T13:26:58;11.60;99.90
16955;DHT22;8594;52.052;8.354;2022-12-29T13:29:33;11.60;99.90
16955;DHT22;8594;52.052;8.354;2022-12-29T13:32:15;11.60;99.90
16955;DHT22;8594;52.052;8.354;2022-12-29T13:34:56;11.70;99.90
16955;DHT22;8594;52.052;8.354;2022-12-29T13:37:33;11.70;99.90
16955;DHT22;8594;52.052;8.354;2022-12-29T13:40:16;11.70;99.90
16955;DHT22;8594;52.052;8.354;2022-12-29T13:42:49;11.60;99.90
16955;DHT22;8594;52.052;8.354;2022-12-29T13:45:19;11.40;99.90
16955;DHT22;8594;52.052;8.354;2022-12-29T13:47:52;11.40;99.90
16955;DHT22;8594;52.052;8.354;2022-12-29T13:50:27;11.40;99.90
16955;DHT22;8594;52.052;8.354;2022-12-29T13:53:00;11.40;99.90
16955;DHT22;8594;52.052;8.354;2022-12-29T13:55:39;11.50;99.90
16955;DHT22;8594;52.052;8.354;2022-12-29T13:58:18;11.50;99.90
16955;DHT22;8594;52.052;8.354;2022-12-29T14:00:55;11.50;99.90
16955;DHT22;8594;52.052;8.354;2022-12-29T14:03:43;11.60;99.90
16955;DHT22;8594;52.052;8.354;2022-12-29T14:06:24;11.70;99.90
16955;DHT22;8594;52.052;8.354;2022-12-29T14:08:54;11.70;99.90
16955;DHT22;8594;52.052;8.354;2022-12-29T14:11:28;11.50;99.90
16955;DHT22;8594;52.052;8.354;2022-12-29T14:14:00;11.50;99.90
16955;DHT22;8594;52.052;8.354;2022-12-29T14:16:38;11.60;99.90
16955;DHT22;8594;52.052;8.354;2022-12-29T14:19:13;11.70;99.90
16955;DHT22;8594;52.052;8.354;2022-12-29T14:21:51;11.70;99.90
16955;DHT22;8594;52.052;8.354;2022-12-29T14:24:40;11.60;99.90
16955;DHT22;8594;52.052;8.354;2022-12-29T14:27:43;11.50;99.90
16955;DHT22;8594;52.052;8.354;2022-12-29T14:30:53;11.40;99.90
16955;DHT22;8594;52.052;8.354;2022-12-29T14:33:21;11.40;99.90
16955;DHT22;8594;52.052;8.354;2022-12-29T14:35:52;11.30;99.90
16955;DHT22;8594;52.052;8.354;2022-12-29T14:38:27;11.20;99.90
16955;DHT22;8594;52.052;8.354;2022-12-29T14:41:16;11.10;99.90
16955;DHT22;8594;52.052;8.354;2022-12-29T14:43:56;11.20;99.90
16955;DHT22;8594;52.052;8.354;2022-12-29T14:46:42;11.10;99.90
16955;DHT22;8594;52.052;8.354;2022-12-29T14:49:18;11.20;99.90
16955;DHT22;8594;52.052;8.354;2022-12-29T14:51:50;11.20;99.90
16955;DHT22;8594;52.052;8.354;2022-12-29T14:54:45;11.00;99.90
16955;DHT22;8594;52.052;8.354;2022-12-29T14:57:33;11.10;99.90
16955;DHT22;8594;52.052;8.354;2022-12-29T15:00:14;11.10;99.90
16955;DHT22;8594;52.052;8.354;2022-12-29T15:02:48;11.10;99.90
16955;DHT22;8594;52.052;8.354;2022-12-29T15:05:34;11.10;99.90
16955;DHT22;8594;52.052;8.354;2022-12-29T15:08:07;11.10;99.90
16955;DHT22;8594;52.052;8.354;2022-12-29T15:10:39;11.10;99.90
16955;DHT22;8594;52.052;8.354;2022-12-29T15:13:16;11.20;99.90
16955;DHT22;8594;52.052;8.354;2022-12-29T15:15:47;11.30;99.90
16955;DHT22;8594;52.052;8.354;2022-12-29T15:18:23;11.40;99.90
16955;DHT22;8594;52.052;8.354;2022-12-29T15:20:53;11.20;99.90
16955;DHT22;8594;52.052;8.354;2022-12-29T15:23:22;11.20;99.90
16955;DHT22;8594;52.052;8.354;2022-12-29T15:25:53;11.20;99.90
16955;DHT22;8594;52.052;8.354;2022-12-29T15:28:24;11.10;99.90
16955;DHT22;8594;52.052;8.354;2022-12-29T15:30:56;11.20;99.90
16955;DHT22;8594;52.052;8.354;2022-12-29T15:33:31;11.20;99.90
16955;DHT22;8594;52.052;8.354;2022-12-29T15:36:10;11.10;99.90
16955;DHT22;8594;52.052;8.354;2022-12-29T15:38:39;11.20;99.90
16955;DHT22;8594;52.052;8.354;2022-12-29T15:41:20;11.30;99.90
16955;DHT22;8594;52.052;8.354;2022-12-29T15:44:00;11.30;99.90
16955;DHT22;8594;52.052;8.354;2022-12-29T15:46:35;11.30;99.90
16955;DHT22;8594;52.052;8.354;2022-12-29T15:49:06;11.30;99.90
16955;DHT22;8594;52.052;8.354;2022-12-29T15:51:36;11.30;99.90
16955;DHT22;8594;52.052;8.354;2022-12-29T15:54:05;11.40;99.90
16955;DHT22;8594;52.052;8.354;2022-12-29T15:56:33;11.30;99.90
16955;DHT22;8594;52.052;8.354;2022-12-29T15:59:01;11.30;99.90
16955;DHT22;8594;52.052;8.354;2022-12-29T16:01:30;11.30;99.90
16955;DHT22;8594;52.052;8.354;2022-12-29T16:03:59;11.20;99.90
16955;DHT22;8594;52.052;8.354;2022-12-29T16:06:33;11.10;99.90
16955;DHT22;8594;52.052;8.354;2022-12-29T16:09:04;11.10;99.90
16955;DHT22;8594;52.052;8.354;2022-12-29T16:11:35;11.00;99.90
16955;DHT22;8594;52.052;8.354;2022-12-29T16:14:20;10.90;99.90
16955;DHT22;8594;52.052;8.354;2022-12-29T16:16:51;11.00;99.90
16955;DHT22;8594;52.052;8.354;2022-12-29T16:19:23;11.00;99.90
16955;DHT22;8594;52.052;8.354;2022-12-29T16:21:57;11.00;99.90
16955;DHT22;8594;52.052;8.354;2022-12-29T16:24:30;11.00;99.90
16955;DHT22;8594;52.052;8.354;2022-12-29T16:27:06;11.00;99.90